Time;durP1;ratioP1;P1;durP2;ratioP2;P2;SDS_P1;SDS_P2;PMS_P1;PMS_P2;Temp;Humidity;BMP_temperature;BMP_pressure;BME280_temperature;BME280_humidity;BME280_pressure;Samples;Min_cycle;Max_cycle;Signal;HPM_P1;HPM_P2
2022/04/19 00:01:50;;;;;;;8.10;2.53;;;;;;;8.47;72.72;100665.47;4807844;29;20453;-77
2022/04/19 00:04:18;;;;;;;10.68;2.50;;;;;;;8.49;72.11;100665.19;4806969;29;20035;-77
2022/04/19 00:06:44;;;;;;;11.30;2.60;;;;;;;8.44;72.42;100666.03;4808002;29;20041;-77
2022/04/19 00:09:10;;;;;;;7.65;2.13;;;;;;;8.44;72.50;100656.88;4792867;29;20027;-77
2022/04/19 00:11:36;;;;;;;7.93;1.95;;;;;;;8.44;72.09;100654.09;4808165;29;20042;-77
2022/04/19 00:14:01;;;;;;;6.68;2.30;;;;;;;8.42;72.36;100656.34;4792771;29;20038;-77
2022/04/19 00:16:27;;;;;;;8.07;2.00;;;;;;;8.39;72.47;100657.72;4783611;29;20088;-77
2022/04/19 00:18:53;;;;;;;4.95;1.95;;;;;;;8.39;72.38;100654.13;4804756;29;20094;-77
2022/04/19 00:21:19;;;;;;;13.15;2.50;;;;;;;8.36;72.88;100654.63;4808836;29;20091;-77
2022/04/19 00:23:46;;;;;;;6.40;2.20;;;;;;;8.32;72.80;100648.81;4792760;29;20122;-77
2022/04/19 00:26:12;;;;;;;6.53;2.10;;;;;;;8.34;72.47;100643.84;4792798;29;20105;-77
2022/04/19 00:28:37;;;;;;;8.43;2.50;;;;;;;8.32;72.56;100646.06;4807487;29;20054;-77
2022/04/19 00:31:04;;;;;;;6.20;2.08;;;;;;;8.29;72.27;100647.44;4774993;30;20043;-77
2022/04/19 00:33:30;;;;;;;8.15;2.15;;;;;;;8.25;72.91;100643.56;4792533;29;20071;-77
2022/04/19 00:35:56;;;;;;;11.80;2.40;;;;;;;8.22;72.89;100643.28;4794867;29;20030;-77
2022/04/19 00:38:22;;;;;;;5.80;2.20;;;;;;;8.24;72.87;100636.34;4781374;29;20526;-77
2022/04/19 00:40:48;;;;;;;8.70;2.55;;;;;;;8.17;72.89;100635.81;4781913;29;20088;-77
2022/04/19 00:43:18;;;;;;;8.07;2.50;;;;;;;8.16;72.97;100633.31;4796350;29;20488;-77
2022/04/19 00:45:44;;;;;;;6.70;1.85;;;;;;;8.12;72.76;100644.09;4796455;29;20084;-78
2022/04/19 00:48:10;;;;;;;10.13;2.72;;;;;;;8.11;73.10;100638.81;4796079;29;20038;-77
2022/04/19 00:50:36;;;;;;;7.90;2.13;;;;;;;8.09;73.01;100641.88;4812336;29;20039;-77
2022/04/19 00:53:02;;;;;;;7.45;2.15;;;;;;;8.06;72.97;100640.50;4808360;29;20549;-77
2022/04/19 00:55:27;;;;;;;7.38;2.28;;;;;;;8.06;72.65;100642.44;4796192;29;20041;-77
2022/04/19 00:57:53;;;;;;;9.27;2.10;;;;;;;8.06;72.68;100639.66;4796119;29;20541;-77
2022/04/19 01:00:20;;;;;;;8.75;2.22;;;;;;;8.01;72.67;100640.47;4766281;29;20059;-77
2022/04/19 01:02:45;;;;;;;10.30;2.45;;;;;;;8.00;72.66;100635.25;4781063;29;20095;-77
2022/04/19 01:05:11;;;;;;;9.25;2.08;;;;;;;7.96;72.75;100639.63;4795922;29;20035;-77
2022/04/19 01:07:36;;;;;;;6.00;2.00;;;;;;;7.89;73.02;100639.91;4795889;29;20083;-77
2022/04/19 01:10:02;;;;;;;8.43;1.92;;;;;;;7.91;73.17;100629.41;4795587;29;20095;-77
2022/04/19 01:15:12;;;;;;;5.75;1.92;;;;;;;7.86;72.55;100637.69;4797739;29;20026;-77
2022/04/19 01:17:39;;;;;;;7.95;2.47;;;;;;;7.86;72.67;100637.69;4798225;29;20686;-77
2022/04/19 01:20:09;;;;;;;5.85;2.10;;;;;;;7.81;72.60;100634.91;4810477;29;20068;-78
2022/04/19 01:22:35;;;;;;;8.70;2.30;;;;;;;7.80;72.75;100625.78;4784670;29;20039;-78
2022/04/19 01:25:00;;;;;;;7.47;2.10;;;;;;;7.75;73.34;100628.53;4795837;29;20043;-77
2022/04/19 01:27:26;;;;;;;8.60;2.90;;;;;;;7.73;73.79;100636.28;4795455;29;20050;-77
2022/04/19 01:29:53;;;;;;;7.50;2.30;;;;;;;7.71;73.49;100621.88;4795369;29;20103;-77
2022/04/19 01:32:20;;;;;;;6.07;2.00;;;;;;;7.72;73.70;100629.09;4800962;29;20253;-77
2022/04/19 01:34:46;;;;;;;7.30;2.17;;;;;;;7.68;73.44;100632.66;4811569;29;20034;-77
2022/04/19 01:37:11;;;;;;;11.35;2.20;;;;;;;7.63;73.63;100627.94;4795231;29;20027;-77
2022/04/19 01:42:21;;;;;;;6.05;2.25;;;;;;;7.56;73.81;100630.13;4797820;29;20046;-77
2022/04/19 01:44:47;;;;;;;7.57;2.03;;;;;;;7.54;73.79;100633.16;4780504;29;20027;-77
2022/04/19 01:47:13;;;;;;;5.95;2.00;;;;;;;7.54;73.57;100635.91;4793802;29;20396;-77
2022/04/19 01:49:38;;;;;;;7.45;2.10;;;;;;;7.52;73.86;100634.53;4780389;29;20095;-77
2022/04/19 01:52:08;;;;;;;7.55;2.38;;;;;;;7.50;73.85;100628.47;4810450;29;20035;-77
2022/04/19 01:54:34;;;;;;;7.82;2.08;;;;;;;7.47;74.00;100623.47;4810061;29;20037;-77
2022/04/19 01:56:59;;;;;;;7.95;2.97;;;;;;;7.43;74.34;100625.94;4795085;29;20690;-77
2022/04/19 01:59:24;;;;;;;8.02;2.38;;;;;;;7.41;73.89;100622.63;4779917;29;20092;-77
2022/04/19 02:01:50;;;;;;;5.97;2.47;;;;;;;7.38;74.19;100623.16;4794495;29;20088;-77
2022/04/19 02:04:15;;;;;;;9.88;2.20;;;;;;;7.36;74.32;100620.66;4764685;29;20031;-77
2022/04/19 02:06:41;;;;;;;6.03;1.90;;;;;;;7.36;74.31;100620.66;4795095;29;20026;-77
2022/04/19 02:09:07;;;;;;;8.95;2.05;;;;;;;7.36;74.13;100622.59;4794761;29;20038;-77
2022/04/19 02:11:32;;;;;;;5.72;1.88;;;;;;;7.30;74.64;100619.00;4765323;29;20035;-77
2022/04/19 02:13:59;;;;;;;4.38;1.88;;;;;;;7.28;74.65;100615.66;4764901;29;20038;-77
2022/04/19 02:16:24;;;;;;;8.18;2.08;;;;;;;7.28;74.41;100612.06;4779657;29;20665;-77
2022/04/19 02:18:50;;;;;;;8.27;2.10;;;;;;;7.27;74.45;100611.25;4794750;29;20030;-77
2022/04/19 02:21:15;;;;;;;8.32;2.00;;;;;;;7.22;74.21;100608.47;4809632;29;20035;-77
2022/04/19 02:23:41;;;;;;;6.35;1.88;;;;;;;7.20;74.63;100610.66;4794782;29;20031;-77
2022/04/19 02:26:07;;;;;;;8.63;2.05;;;;;;;7.19;74.83;100611.75;4810780;29;20060;-77
2022/04/19 02:28:34;;;;;;;5.90;2.00;;;;;;;7.18;74.53;100606.50;4809383;29;20085;-77
2022/04/19 02:30:59;;;;;;;8.70;2.67;;;;;;;7.16;74.56;100601.25;4780022;29;20053;-77
2022/04/19 02:33:25;;;;;;;9.32;2.03;;;;;;;7.10;74.72;100594.88;4794611;29;20491;-77
2022/04/19 02:35:52;;;;;;;5.57;1.77;;;;;;;7.11;75.09;100607.56;4764543;29;20120;-77
2022/04/19 02:38:18;;;;;;;6.68;2.03;;;;;;;7.08;74.72;100599.81;4794732;29;20042;-77
2022/04/19 02:40:43;;;;;;;6.72;2.17;;;;;;;7.10;74.83;100591.25;4791337;30;20039;-77
2022/04/19 02:43:09;;;;;;;4.75;1.58;;;;;;;7.06;74.74;100592.91;4767119;29;20042;-77
2022/04/19 02:45:34;;;;;;;8.68;1.63;;;;;;;7.05;74.52;100596.75;4809158;29;20031;-77
2022/04/19 02:48:05;;;;;;;7.10;2.10;;;;;;;6.99;74.46;100587.59;4810250;29;20039;-77
2022/04/19 02:50:33;;;;;;;5.22;1.75;;;;;;;6.97;74.60;100594.53;4809150;29;20042;-77
2022/04/19 02:53:00;;;;;;;7.82;1.73;;;;;;;6.96;74.44;100587.31;4810224;29;20041;-77
2022/04/19 02:55:27;;;;;;;4.80;1.70;;;;;;;6.94;74.43;100598.66;4794106;29;20045;-77
2022/04/19 02:57:53;;;;;;;5.65;1.67;;;;;;;6.91;74.60;100599.19;4775829;30;20035;-77
2022/04/19 03:00:20;;;;;;;6.45;1.80;;;;;;;6.89;74.67;100599.44;4800930;29;20058;-77
2022/04/19 03:02:46;;;;;;;5.15;1.80;;;;;;;6.91;74.59;100591.72;4793630;29;20084;-78
2022/04/19 03:05:12;;;;;;;4.00;1.40;;;;;;;6.85;74.76;100595.56;4764415;29;20060;-77
2022/04/19 03:07:37;;;;;;;4.63;1.60;;;;;;;6.82;74.68;100598.00;4793802;29;20434;-77
2022/04/19 03:10:03;;;;;;;6.07;1.70;;;;;;;6.82;74.59;100592.50;4808882;29;20042;-77
2022/04/19 03:12:28;;;;;;;6.78;2.25;;;;;;;6.81;74.84;100590.84;4778811;29;20034;-77
2022/04/19 03:14:55;;;;;;;3.88;1.23;;;;;;;6.77;74.81;100584.19;4793925;29;20027;-77
2022/04/19 03:17:21;;;;;;;5.50;2.10;;;;;;;6.76;74.50;100588.88;4796328;29;20023;-77
2022/04/19 03:19:46;;;;;;;3.90;1.50;;;;;;;6.70;74.48;100588.00;4808490;29;20042;-77
2022/04/19 03:22:12;;;;;;;7.40;1.50;;;;;;;6.73;74.54;100586.66;4808366;29;20037;-77
2022/04/19 03:30:06;;;;;;;7.35;1.70;;;;;;;6.64;74.74;100586.31;4809152;29;20078;-77
2022/04/19 03:32:32;;;;;;;5.10;1.67;;;;;;;6.62;74.80;100577.47;4809186;29;20035;-77
2022/04/19 03:34:58;;;;;;;7.15;2.25;;;;;;;6.58;74.65;100581.03;4778502;29;20131;-77
2022/04/19 03:37:23;;;;;;;6.82;1.65;;;;;;;6.54;74.73;100574.38;4808193;29;20035;-77
2022/04/19 03:39:49;;;;;;;4.63;1.67;;;;;;;6.55;75.00;100576.06;4793520;29;20050;-77
2022/04/19 03:42:14;;;;;;;7.05;1.30;;;;;;;6.49;75.02;100576.03;4809596;29;20039;-77
2022/04/19 03:44:40;;;;;;;6.15;1.73;;;;;;;6.46;74.93;100568.28;4808339;29;20057;-77
2022/04/19 03:47:09;;;;;;;4.75;1.80;;;;;;;6.44;74.75;100577.91;4793064;29;20035;-77
2022/04/19 03:49:41;;;;;;;5.32;1.50;;;;;;;6.44;74.94;100581.50;4778887;29;20121;-77
2022/04/19 03:52:07;;;;;;;5.85;1.65;;;;;;;6.44;74.50;100570.47;4793008;29;20039;-77
2022/04/19 03:54:34;;;;;;;4.65;1.60;;;;;;;6.42;74.88;100569.88;4808287;29;20554;-77
2022/04/19 03:57:05;;;;;;;7.22;1.63;;;;;;;6.39;75.18;100570.41;4778417;29;20058;-78
2022/04/19 03:59:31;;;;;;;7.57;1.80;;;;;;;6.34;75.47;100570.38;4792979;29;20042;-77
2022/04/19 04:01:58;;;;;;;6.28;1.63;;;;;;;6.33;75.12;100567.91;4792726;29;20701;-77
2022/04/19 04:04:24;;;;;;;4.32;1.60;;;;;;;6.34;75.13;100573.13;4762200;29;20031;-77
2022/04/19 04:06:50;;;;;;;4.25;1.80;;;;;;;6.29;75.33;100566.75;4778331;29;20038;-77
2022/04/19 04:09:15;;;;;;;5.57;1.55;;;;;;;6.26;75.43;100562.59;4776871;30;20034;-77
2022/04/19 04:11:43;;;;;;;5.18;1.45;;;;;;;6.25;75.25;100560.94;4784279;29;20039;-77
2022/04/19 04:14:11;;;;;;;7.47;1.75;;;;;;;6.23;75.31;100563.13;4752336;29;20064;-77
2022/04/19 04:16:37;;;;;;;4.05;1.63;;;;;;;6.18;75.50;100563.06;4767285;30;20043;-77
2022/04/19 04:19:03;;;;;;;7.55;1.60;;;;;;;6.14;75.31;100560.03;4758453;30;20035;-77
2022/04/19 04:21:28;;;;;;;5.75;1.77;;;;;;;6.10;75.34;100566.31;4761579;29;20600;-77
2022/04/19 04:23:54;;;;;;;3.90;1.52;;;;;;;6.16;75.26;100562.53;4774666;30;20035;-77
2022/04/19 04:26:19;;;;;;;5.63;1.70;;;;;;;6.15;75.14;100567.19;4807785;29;20035;-77
2022/04/19 04:28:45;;;;;;;4.13;1.52;;;;;;;6.13;75.22;100563.88;4792367;29;20412;-77
2022/04/19 04:31:10;;;;;;;3.78;1.45;;;;;;;6.08;75.40;100557.50;4785001;29;20042;-77
2022/04/19 04:33:36;;;;;;;7.03;1.60;;;;;;;6.06;75.25;100559.69;4758602;30;20092;-77
2022/04/19 04:36:02;;;;;;;3.88;1.60;;;;;;;6.01;75.39;100561.28;4785246;29;20095;-77
2022/04/19 04:38:33;;;;;;;4.03;1.65;;;;;;;6.03;75.53;100561.03;4792716;29;20031;-77
2022/04/19 04:40:59;;;;;;;5.13;1.40;;;;;;;5.97;75.58;100553.81;4793348;29;20694;-77
2022/04/19 04:43:24;;;;;;;4.45;1.63;;;;;;;5.94;75.85;100552.41;4792583;29;20038;-77
2022/04/19 04:49:35;;;;;;;6.72;1.85;;;;;;;5.97;75.45;100554.66;4792393;29;20042;-77
2022/04/19 04:51:25;;;;;;;4.45;1.65;;;;;;;5.90;75.82;100551.22;4794809;29;20092;-77
2022/04/19 04:53:51;;;;;;;6.40;2.00;;;;;;;5.90;76.34;100548.47;4792503;29;20536;-77
2022/04/19 04:56:17;;;;;;;5.05;1.42;;;;;;;5.90;76.49;100553.97;4777192;29;20137;-77
2022/04/19 04:58:42;;;;;;;5.68;1.42;;;;;;;5.85;76.64;100559.47;4792661;29;20035;-78
2022/04/19 05:01:08;;;;;;;7.50;2.00;;;;;;;5.86;76.43;100561.13;4806984;29;20038;-77
2022/04/19 05:03:33;;;;;;;5.13;1.75;;;;;;;5.91;76.08;100552.91;4792364;29;20031;-77
2022/04/19 05:06:07;;;;;;;4.40;1.92;;;;;;;5.82;76.75;100557.22;4792065;29;20034;-77
2022/04/19 05:08:32;;;;;;;6.88;1.85;;;;;;;5.83;77.04;100559.72;4791654;29;20035;-78
2022/04/19 05:11:01;;;;;;;5.32;1.80;;;;;;;5.89;76.59;100557.84;4792225;29;20042;-78
2022/04/19 05:13:27;;;;;;;5.53;1.95;;;;;;;5.88;76.59;100561.72;4763131;29;20577;-77
2022/04/19 05:15:58;;;;;;;5.10;1.58;;;;;;;5.88;76.85;100564.47;4777003;29;20035;-77
2022/04/19 05:18:25;;;;;;;5.40;1.50;;;;;;;5.88;77.15;100566.38;4807292;29;20481;-77
2022/04/19 05:20:56;;;;;;;4.55;1.70;;;;;;;5.88;77.18;100558.94;4777019;29;20062;-78
2022/04/19 05:23:22;;;;;;;4.60;1.65;;;;;;;5.89;77.13;100557.84;4765596;29;20054;-78
2022/04/19 05:25:53;;;;;;;4.07;1.48;;;;;;;5.89;76.86;100551.50;4780719;29;20031;-78
2022/04/19 05:28:24;;;;;;;4.97;2.05;;;;;;;5.92;77.38;100550.97;4767344;29;20147;-78
2022/04/19 05:30:53;;;;;;;7.75;1.77;;;;;;;5.93;77.76;100561.75;4792629;29;20035;-78
2022/04/19 05:33:18;;;;;;;3.97;1.73;;;;;;;5.99;77.90;100562.63;4769035;29;20031;-77
2022/04/19 05:35:44;;;;;;;4.38;1.40;;;;;;;6.02;79.22;100568.47;4780402;29;20050;-78
2022/04/19 05:38:12;;;;;;;4.80;1.50;;;;;;;6.08;78.50;100565.78;4795048;29;20510;-77
2022/04/19 05:40:41;;;;;;;4.47;1.75;;;;;;;6.11;79.77;100568.00;4795270;29;20026;-77
2022/04/19 05:43:19;;;;;;;4.35;1.90;;;;;;;6.16;79.79;100563.34;4780784;29;20527;-78
2022/04/19 05:45:59;;;;;;;8.13;1.92;;;;;;;6.24;79.62;100570.28;4779231;29;20035;-77
2022/04/19 05:48:25;;;;;;;5.32;1.70;;;;;;;6.32;79.67;100566.22;4795434;29;20038;-78
2022/04/19 05:50:51;;;;;;;3.55;1.50;;;;;;;6.34;79.96;100573.13;4765223;29;20027;-77
2022/04/19 05:53:22;;;;;;;3.58;1.20;;;;;;;6.44;78.66;100575.16;4780708;29;20077;-77
2022/04/19 05:55:48;;;;;;;5.72;1.63;;;;;;;6.49;79.23;100572.41;4760145;29;20065;-78
2022/04/19 05:58:16;;;;;;;3.45;1.60;;;;;;;6.56;79.61;100572.19;4765511;29;20075;-77
2022/04/19 06:00:49;;;;;;;3.85;1.42;;;;;;;6.64;79.70;100571.69;4794638;29;20046;-78
2022/04/19 06:06:14;;;;;;;5.72;1.80;;;;;;;6.78;80.18;100574.81;4796751;29;20121;-78
2022/04/19 06:08:44;;;;;;;3.50;1.38;;;;;;;6.83;79.83;100588.66;4809509;29;20035;-78
2022/04/19 06:11:15;;;;;;;5.53;1.70;;;;;;;6.87;80.33;100590.59;4777803;29;20039;-78
2022/04/19 06:13:41;;;;;;;4.53;1.58;;;;;;;6.95;82.03;100586.50;4764847;29;20027;-77
2022/04/19 06:16:06;;;;;;;2.42;1.30;;;;;;;7.02;81.94;100589.00;4773368;30;20035;-77
2022/04/19 06:18:33;;;;;;;7.18;1.95;;;;;;;7.09;81.61;100586.84;4804096;29;20659;-77
2022/04/19 06:20:58;;;;;;;5.15;1.55;;;;;;;7.16;81.76;100587.44;4794444;29;20034;-77
2022/04/19 06:23:25;;;;;;;6.93;2.25;;;;;;;7.21;83.03;100590.19;4809678;29;20042;-78
2022/04/19 06:25:50;;;;;;;6.03;1.80;;;;;;;7.27;85.28;100589.16;4809495;29;20106;-78
2022/04/19 06:28:17;;;;;;;5.45;1.73;;;;;;;7.37;85.92;100589.16;4821980;29;20102;-71
2022/04/19 06:30:43;;;;;;;6.00;1.92;;;;;;;7.48;87.91;100595.56;4808293;29;20042;-72
2022/04/19 06:33:08;;;;;;;5.55;1.75;;;;;;;7.60;88.75;100592.53;4822867;29;20038;-72
2022/04/19 06:35:34;;;;;;;8.48;2.10;;;;;;;7.74;87.95;100587.34;4828681;29;20392;-72
2022/04/19 06:37:59;;;;;;;6.80;2.00;;;;;;;7.90;84.80;100602.03;4828603;29;20035;-73
2022/04/19 06:40:25;;;;;;;7.05;2.00;;;;;;;8.04;84.03;100592.91;4828623;29;20087;-73
2022/04/19 06:42:50;;;;;;;8.13;1.85;;;;;;;8.21;83.73;100586.28;4828512;29;20042;-74
2022/04/19 06:45:17;;;;;;;9.30;1.95;;;;;;;8.38;83.47;100591.53;4828493;29;20035;-73
2022/04/19 06:47:43;;;;;;;6.80;1.95;;;;;;;8.55;83.63;100586.56;4812253;29;20062;-73
2022/04/19 06:50:08;;;;;;;10.35;1.63;;;;;;;8.73;83.49;100586.00;4828447;29;20510;-73
2022/04/19 06:52:34;;;;;;;6.65;2.00;;;;;;;8.91;82.71;100586.50;4828452;29;20038;-73
2022/04/19 06:55:00;;;;;;;6.57;1.85;;;;;;;9.10;81.45;100587.53;4828548;29;20457;-73
2022/04/19 06:57:26;;;;;;;7.75;2.40;;;;;;;9.29;84.86;100595.25;4811267;29;20054;-77
2022/04/19 06:59:51;;;;;;;6.70;1.90;;;;;;;9.44;80.09;100592.41;4812043;29;20403;-78
2022/04/19 07:02:17;;;;;;;8.10;2.20;;;;;;;9.63;80.71;100589.81;4827933;29;20094;-78
2022/04/19 07:04:43;;;;;;;6.18;1.60;;;;;;;9.82;79.83;100587.22;4811940;29;20034;-78
2022/04/19 07:07:09;;;;;;;8.80;2.13;;;;;;;9.99;80.76;100586.81;4812197;29;20053;-79
2022/04/19 07:09:34;;;;;;;8.07;1.90;;;;;;;10.18;77.59;100587.78;4811848;29;20400;-78
2022/04/19 07:12:00;;;;;;;8.27;1.85;;;;;;;10.37;77.36;100582.38;4811784;29;20066;-77
2022/04/19 07:14:26;;;;;;;8.20;2.00;;;;;;;10.58;77.24;100582.19;4811922;29;20034;-78
2022/04/19 07:16:52;;;;;;;5.40;1.63;;;;;;;10.74;78.21;100581.75;4792029;29;20045;-77
2022/04/19 07:19:18;;;;;;;6.40;1.52;;;;;;;10.92;77.75;100580.19;4800147;29;20049;-77
2022/04/19 07:27:11;;;;;;;5.93;1.70;;;;;;;11.39;76.29;100584.06;4813729;29;20050;-78
2022/04/19 07:29:37;;;;;;;5.35;1.50;;;;;;;11.56;75.66;100575.22;4828294;29;20035;-77
2022/04/19 07:33:11;;;;;;;10.50;2.10;;;;;;;11.75;75.88;100583.56;4818163;29;20416;-78
2022/04/19 07:35:43;;;;;;;6.07;1.23;;;;;;;11.86;74.79;100581.50;4793245;29;20041;-78
2022/04/19 07:38:27;;;;;;;6.00;1.10;;;;;;;12.01;76.14;100580.47;4767734;29;20038;-78
2022/04/19 07:41:00;;;;;;;9.25;1.33;;;;;;;12.07;75.16;100587.59;4782073;29;20102;-79
2022/04/19 07:43:37;;;;;;;9.52;1.30;;;;;;;12.11;74.04;100571.94;4783218;29;20030;-78
2022/04/19 07:46:04;;;;;;;4.82;1.05;;;;;;;12.29;74.29;100564.69;4797205;29;20049;-78
2022/04/19 07:48:33;;;;;;;6.75;1.27;;;;;;;12.29;74.66;100557.16;4781741;29;20098;-79
2022/04/19 07:51:01;;;;;;;3.70;1.10;;;;;;;12.32;73.96;100561.28;4767376;29;20037;-79
2022/04/19 07:53:59;;;;;;;;;;;;;;;;;;;;;
2022/04/19 07:57:19;;;;;;;7.15;1.48;;;;;;;12.56;74.87;100550.00;4777703;29;20042;-79
2022/04/19 08:00:21;;;;;;;8.65;1.50;;;;;;;12.71;74.25;100554.47;4800581;29;20125;-79
2022/04/19 08:03:09;;;;;;;6.47;1.30;;;;;;;12.77;74.30;100552.41;4760094;29;20175;-79
2022/04/19 08:06:34;;;;;;;;;;;;;;;;;;;;;
2022/04/19 08:09:30;;;;;;;7.50;1.25;;;;;;;13.08;72.16;100547.88;4752496;30;20072;-79
2022/04/19 08:12:15;;;;;;;5.75;1.40;;;;;;;13.21;71.91;100551.81;4757631;30;20267;-79
2022/04/19 08:14:41;;;;;;;7.80;1.10;;;;;;;13.34;70.13;100555.75;4755735;30;20122;-78
2022/04/19 08:17:10;;;;;;;7.03;1.20;;;;;;;13.40;69.25;100560.09;4743036;30;20083;-78
2022/04/19 08:19:48;;;;;;;5.03;0.95;;;;;;;13.29;66.80;100558.63;4739297;30;20131;-79
2022/04/19 08:22:50;;;;;;;8.80;1.50;;;;;;;13.43;66.41;100555.84;4739862;30;20055;-78
2022/04/19 08:25:56;;;;;;;5.97;1.27;;;;;;;13.48;65.74;100556.53;4740240;30;20456;-79
2022/04/19 08:29:15;;;;;;;;;;;;;;;;;;;;;
2022/04/19 08:35:30;;;;;;;6.45;0.75;;;;;;;13.70;63.62;100539.03;4740412;30;20074;-79
2022/04/19 08:38:27;;;;;;;3.80;1.02;;;;;;;13.82;62.31;100549.66;4724249;30;20117;-79
2022/04/19 08:41:07;;;;;;;4.40;0.95;;;;;;;13.94;61.55;100546.31;4781672;29;20054;-79
2022/04/19 08:43:43;;;;;;;2.17;0.60;;;;;;;14.12;61.32;100542.50;4775782;30;20038;-79
2022/04/19 08:49:27;;;;;;;3.05;0.60;;;;;;;14.31;58.19;100547.91;4784463;29;21117;-79
2022/04/19 08:59:04;;;;;;;3.63;0.80;;;;;;;14.52;57.02;100537.06;4798256;29;20047;-79
2022/04/19 09:08:27;;;;;;;3.42;1.00;;;;;;;15.00;57.72;100541.06;4747895;30;20101;-79
2022/04/19 09:11:21;;;;;;;2.78;0.80;;;;;;;15.06;56.67;100542.56;4731472;30;20043;-78
2022/04/19 09:14:04;;;;;;;3.33;0.82;;;;;;;15.15;56.68;100540.63;4728135;30;20063;-79
2022/04/19 09:16:45;;;;;;;3.88;0.82;;;;;;;15.29;57.17;100538.50;4759451;30;20068;-79
2022/04/19 09:19:57;;;;;;;5.07;0.80;;;;;;;15.42;57.02;100533.94;4744560;30;20088;-79
2022/04/19 09:22:42;;;;;;;4.60;0.70;;;;;;;15.45;56.03;100532.47;4705293;30;20107;-79
2022/04/19 09:25:56;;;;;;;4.32;0.70;;;;;;;15.48;54.26;100538.25;4698183;30;20041;-79
2022/04/19 09:28:58;;;;;;;3.95;0.70;;;;;;;15.58;54.31;100542.72;4704868;30;20049;-80
2022/04/19 09:32:13;;;;;;;4.75;0.70;;;;;;;15.58;54.14;100542.72;4710873;30;20082;-79
2022/04/19 09:34:51;;;;;;;3.78;0.88;;;;;;;15.35;54.62;100542.84;4717685;30;20052;-79
2022/04/19 09:37:38;;;;;;;2.30;0.60;;;;;;;15.22;54.77;100543.78;4743227;30;20073;-79
2022/04/19 09:43:56;;;;;;;3.67;0.73;;;;;;;15.28;53.52;100533.25;4736682;30;20048;-79
2022/04/19 09:46:39;;;;;;;4.00;0.93;;;;;;;15.33;54.31;100531.13;4741061;30;20068;-79
2022/04/19 09:49:47;;;;;;;3.80;0.65;;;;;;;15.41;53.34;100530.34;4741916;30;20048;-79
2022/04/19 09:52:50;;;;;;;3.33;0.57;;;;;;;15.39;53.19;100529.81;4714012;30;20120;-79
2022/04/19 09:55:48;;;;;;;;;;;;;;;;;;;;;
2022/04/19 09:59:11;;;;;;;;;;;;;;;;;;;;;
2022/04/19 10:10:06;;;;;;;4.03;0.63;;;;;;;15.61;49.72;100519.66;4718767;30;20057;-78
2022/04/19 10:20:59;;;;;;;4.25;0.52;;;;;;;15.72;48.96;100520.19;4701643;30;20045;-78
2022/04/19 10:24:08;;;;;;;2.85;0.60;;;;;;;15.92;50.12;100515.91;4691530;30;20420;-78
2022/04/19 10:31:24;;;;;;;;;;;;;;;16.31;48.21;100523.28;4672166;30;20058;-78
2022/04/19 10:38:45;;;;;;;1.83;0.70;;;;;;;16.59;48.01;100497.66;4633967;30;20151;-78
2022/04/19 10:42:28;;;;;;;3.58;0.70;;;;;;;16.57;47.11;100503.59;4682038;30;20043;-78
2022/04/19 10:58:15;;;;;;;;;;;;;;;;;;;;;
2022/04/19 11:12:18;;;;;;;;;;;;;;;;;;;;;
2022/04/19 11:15:01;;;;;;;5.18;0.60;;;;;;;17.38;43.59;100490.53;4689073;30;20045;-78
2022/04/19 11:17:47;;;;;;;3.08;0.60;;;;;;;17.42;44.29;100483.91;4737136;30;20760;-78
2022/04/19 11:25:00;;;;;;;2.47;0.70;;;;;;;17.58;44.27;100497.34;4699068;30;20041;-78
2022/04/19 11:28:26;;;;;;;5.78;0.68;;;;;;;17.77;43.45;100485.59;4704045;30;20052;-77
2022/04/19 11:31:38;;;;;;;2.90;0.52;;;;;;;17.96;43.58;100485.16;4709146;30;20167;-78
2022/04/19 11:35:01;;;;;;;3.65;0.38;;;;;;;18.06;42.46;100490.34;4732401;30;20098;-78
2022/04/19 11:49:09;;;;;;;5.38;0.60;;;;;;;17.77;42.13;100496.84;4707606;30;20040;-78
2022/04/19 11:52:46;;;;;;;2.67;0.80;;;;;;;17.46;42.20;100481.22;4714540;30;20045;-78
2022/04/19 11:56:37;;;;;;;2.33;0.70;;;;;;;17.54;42.57;100468.28;4757584;30;20046;-78
2022/04/19 11:59:46;;;;;;;2.50;0.40;;;;;;;17.60;41.40;100459.31;4780466;29;20065;-78
2022/04/19 12:02:54;;;;;;;;;;;;;;;;;;;;;
2022/04/19 12:06:32;;;;;;;1.38;0.50;;;;;;;17.80;42.62;100451.25;4798891;29;20492;-78
2022/04/19 12:09:51;;;;;;;;;;;;;;;;;;;;;
2022/04/19 12:12:56;;;;;;;2.25;0.52;;;;;;;18.03;41.60;100449.72;4798761;29;20034;-78
2022/04/19 12:15:49;;;;;;;;;;;;;;;18.14;41.89;100446.47;4794795;29;20103;-78
2022/04/19 12:18:58;;;;;;;1.85;0.50;;;;;;;18.19;41.52;100437.78;4792039;29;19917;-78
2022/04/19 12:22:20;;;;;;;6.85;0.82;;;;;;;18.17;41.40;100437.34;4780068;29;20107;-77
2022/04/19 12:25:09;;;;;;;1.90;0.50;;;;;;;18.29;41.68;100428.94;4778230;29;20500;-78
2022/04/19 12:27:51;;;;;;;3.90;0.60;;;;;;;18.30;41.19;100433.38;4781215;29;20035;-78
2022/04/19 12:30:43;;;;;;;3.40;0.50;;;;;;;18.36;41.35;100433.97;4789571;29;20039;-78
2022/04/19 12:45:45;;;;;;;;;;;;;;;;;;;;;
2022/04/19 12:49:15;;;;;;;3.30;0.80;;;;;;;18.28;40.83;100411.25;4753767;30;20129;-79
2022/04/19 12:52:58;;;;;;;;;;;;;;;;;;;;;
2022/04/19 12:56:40;;;;;;;2.22;0.50;;;;;;;18.45;40.66;100401.78;4681641;30;20145;-78
2022/04/19 12:59:17;;;;;;;3.35;0.57;;;;;;;18.33;41.11;100401.78;4693168;30;20090;-78
2022/04/19 13:12:40;;;;;;;5.22;0.80;;;;;;;18.40;42.38;100415.25;4806795;29;20170;-78
2022/04/19 13:15:51;;;;;;;2.92;0.70;;;;;;;18.38;41.75;100406.34;4800213;29;20047;-78
2022/04/19 13:18:55;;;;;;;5.25;0.60;;;;;;;18.30;41.36;100388.41;4790827;29;20047;-78
2022/04/19 13:22:09;;;;;;;3.00;0.73;;;;;;;18.25;41.16;100383.84;4781614;29;20047;-78
2022/04/19 13:29:06;;;;;;;5.28;1.00;;;;;;;17.92;41.40;100374.63;4820802;29;20114;-78
2022/04/19 13:32:37;;;;;;;3.35;0.80;;;;;;;17.77;41.23;100393.72;4795336;29;20042;-78
2022/04/19 13:35:41;;;;;;;5.28;0.75;;;;;;;17.69;41.52;100389.03;4777549;29;20039;-78
2022/04/19 13:39:15;;;;;;;2.95;0.70;;;;;;;17.59;41.82;100384.66;4787637;29;20050;-78
2022/04/19 13:50:31;;;;;;;4.43;0.70;;;;;;;17.88;42.20;100374.50;4826093;29;20133;-78
2022/04/19 13:57:01;;;;;;;;;;;;;;;;;;;;;
2022/04/19 13:59:47;;;;;;;3.88;0.57;;;;;;;17.84;42.24;100385.59;4621383;30;20051;-77
2022/04/19 14:02:24;;;;;;;3.38;0.68;;;;;;;17.88;42.26;100377.31;4632416;31;20070;-77
2022/04/19 14:05:42;;;;;;;2.95;0.70;;;;;;;17.85;41.96;100373.19;4619923;31;20047;-78
2022/04/19 14:08:46;;;;;;;4.65;0.85;;;;;;;17.97;42.17;100365.97;4605062;30;20106;-77
2022/04/19 14:11:29;;;;;;;7.18;0.60;;;;;;;18.09;43.00;100369.63;4602252;31;20138;-78
2022/04/19 14:14:12;;;;;;;3.38;0.85;;;;;;;17.99;41.67;100372.88;4625537;31;20161;-78
2022/04/19 14:21:29;;;;;;;;;;;;;;;;;;;;;
2022/04/19 14:24:27;;;;;;;3.90;0.77;;;;;;;17.84;42.41;100371.56;4675557;30;19915;-78
2022/04/19 14:27:19;;;;;;;4.72;0.90;;;;;;;17.78;43.71;100356.09;4720137;30;20105;-79
2022/04/19 14:33:16;;;;;;;5.00;1.30;;;;;;;17.92;43.91;100371.81;4824135;29;20134;-73
2022/04/19 14:35:45;;;;;;;4.82;1.38;;;;;;;17.95;44.56;100369.13;4812513;29;20044;-74
2022/04/19 14:38:11;;;;;;;6.63;1.42;;;;;;;18.01;45.33;100366.94;4767972;29;20099;-72
2022/04/19 14:40:36;;;;;;;5.68;1.30;;;;;;;17.93;42.53;100368.66;4828669;29;20023;-72
2022/04/19 14:43:02;;;;;;;5.70;1.27;;;;;;;18.00;43.20;100365.28;4828557;29;20038;-72
2022/04/19 14:45:27;;;;;;;4.47;1.00;;;;;;;17.98;43.55;100362.81;4827590;29;20042;-72
2022/04/19 14:47:53;;;;;;;3.70;1.17;;;;;;;17.90;42.04;100360.09;4828335;29;20082;-71
2022/04/19 14:50:18;;;;;;;8.88;1.13;;;;;;;17.91;42.83;100358.94;4828468;29;20034;-72
2022/04/19 14:52:47;;;;;;;2.88;1.00;;;;;;;17.84;42.15;100367.94;4797143;29;20500;-72
2022/04/19 14:55:14;;;;;;;4.50;0.93;;;;;;;17.92;42.99;100369.03;4811653;29;20038;-74
2022/04/19 14:57:40;;;;;;;6.70;1.40;;;;;;;17.95;42.92;100371.13;4782693;29;20167;-71
2022/04/19 15:00:06;;;;;;;5.10;1.00;;;;;;;17.69;42.80;100360.13;4797035;29;20039;-72
2022/04/19 15:02:32;;;;;;;4.30;0.80;;;;;;;17.28;43.22;100362.66;4811947;29;20038;-71
2022/04/19 15:04:58;;;;;;;5.57;1.05;;;;;;;17.20;44.52;100363.53;4796304;29;20035;-71
2022/04/19 15:07:25;;;;;;;6.03;1.00;;;;;;;17.06;44.57;100368.59;4828134;29;20038;-71
2022/04/19 15:09:51;;;;;;;3.97;1.10;;;;;;;17.05;44.93;100370.59;4811730;29;20517;-71
2022/04/19 15:12:18;;;;;;;4.75;0.90;;;;;;;16.94;44.71;100375.78;4840544;29;20061;-73